Time;durP1;ratioP1;P1;durP2;ratioP2;P2;SDS_P1;SDS_P2;PMS_P1;PMS_P2;Temp;Humidity;BMP_temperature;BMP_pressure;BME280_temperature;BME280_humidity;BME280_pressure;Samples;Min_cycle;Max_cycle;Signal;HPM_P1;HPM_P2
2023/08/01 00:00:31;;;;;;;0.00;0.00;;;;;;;16.88;100.00;98899.88;5033332;28;20544;-86
2023/08/01 00:02:56;;;;;;;0.10;0.10;;;;;;;16.79;100.00;98897.50;5032787;28;20639;-86
2023/08/01 00:05:22;;;;;;;0.33;0.33;;;;;;;16.76;100.00;98912.03;5033119;28;20187;-86
2023/08/01 00:07:47;;;;;;;0.00;0.00;;;;;;;16.75;100.00;98917.97;5015432;28;20194;-86
2023/08/01 00:10:12;;;;;;;0.00;0.00;;;;;;;16.88;100.00;98921.94;5014098;28;20203;-85
2023/08/01 00:12:37;;;;;;;0.00;0.00;;;;;;;16.85;100.00;98920.75;5014454;28;20192;-86
2023/08/01 00:15:04;;;;;;;1.43;0.83;;;;;;;16.89;100.00;98912.47;5014545;28;20648;-86
2023/08/01 00:17:29;;;;;;;0.00;0.00;;;;;;;16.88;100.00;98908.94;5032887;28;20184;-84
2023/08/01 00:19:54;;;;;;;0.40;0.40;;;;;;;16.95;100.00;98897.13;5024359;28;20543;-85
2023/08/01 00:22:20;;;;;;;0.10;0.10;;;;;;;16.93;100.00;98894.78;5032682;28;20551;-85
2023/08/01 00:24:47;;;;;;;0.67;0.67;;;;;;;16.90;100.00;98878.19;5032732;28;20696;-86
2023/08/01 00:27:12;;;;;;;0.20;0.20;;;;;;;16.83;100.00;98876.22;5024562;28;20658;-85
2023/08/01 00:29:38;;;;;;;0.20;0.20;;;;;;;16.80;100.00;98882.53;5032897;28;20242;-86
2023/08/01 00:32:03;;;;;;;0.00;0.00;;;;;;;16.80;100.00;98887.25;5032738;28;20184;-85
2023/08/01 00:34:29;;;;;;;0.00;0.00;;;;;;;16.72;100.00;98878.16;5015076;28;20614;-85
2023/08/01 00:36:54;;;;;;;0.00;0.00;;;;;;;16.81;100.00;98870.31;5009219;28;20258;-84
2023/08/01 00:39:19;;;;;;;0.00;0.00;;;;;;;16.91;100.00;98854.94;5030316;28;20241;-85
2023/08/01 00:41:44;;;;;;;0.00;0.00;;;;;;;16.91;100.00;98855.72;5014648;28;20211;-86
2023/08/01 00:44:10;;;;;;;0.00;0.00;;;;;;;16.91;100.00;98849.41;5014736;28;20208;-85
2023/08/01 00:46:35;;;;;;;0.33;0.33;;;;;;;16.85;100.00;98842.72;5016115;28;20184;-85
2023/08/01 00:49:00;;;;;;;0.00;0.00;;;;;;;16.85;100.00;98834.44;5014779;28;20654;-85
2023/08/01 00:51:27;;;;;;;0.20;0.20;;;;;;;16.84;100.00;98847.44;5013584;28;20212;-85
2023/08/01 00:53:53;;;;;;;0.43;0.27;;;;;;;16.76;100.00;98832.06;5016966;28;20204;-86
2023/08/01 00:56:18;;;;;;;0.47;0.20;;;;;;;16.73;100.00;98838.38;5034914;28;20195;-83
2023/08/01 00:58:43;;;;;;;1.80;0.83;;;;;;;16.77;100.00;98830.88;5017252;28;20270;-86
2023/08/01 01:01:09;;;;;;;0.13;0.13;;;;;;;16.76;100.00;98828.50;5034742;28;20258;-83
2023/08/01 01:03:36;;;;;;;0.53;0.27;;;;;;;16.79;100.00;98827.75;5026333;28;20203;-85
2023/08/01 01:06:11;;;;;;;0.10;0.10;;;;;;;16.79;100.00;98822.25;5017112;28;20191;-86
2023/08/01 01:08:36;;;;;;;0.00;0.00;;;;;;;16.97;100.00;98813.97;5034698;28;20194;-84
2023/08/01 01:11:04;;;;;;;0.10;0.10;;;;;;;16.99;100.00;98811.59;5008850;28;20215;-85
2023/08/01 01:13:29;;;;;;;0.00;0.00;;;;;;;16.99;100.00;98812.38;5034344;28;20206;-86
2023/08/01 01:15:54;;;;;;;0.00;0.00;;;;;;;16.94;100.00;98796.25;5029005;28;20200;-86
2023/08/01 01:18:20;;;;;;;0.10;0.10;;;;;;;16.92;100.00;98795.81;5022856;28;20666;-85
2023/08/01 01:20:45;;;;;;;0.00;0.00;;;;;;;16.90;100.00;98789.91;5028389;28;20256;-85
2023/08/01 01:23:11;;;;;;;0.00;0.00;;;;;;;16.91;100.00;98786.75;5016459;28;20207;-85
2023/08/01 01:25:38;;;;;;;0.00;0.00;;;;;;;16.93;100.00;98784.41;5029288;28;20179;-84
2023/08/01 01:28:05;;;;;;;0.00;0.00;;;;;;;16.89;100.00;98785.56;5008380;28;20654;-86
2023/08/01 01:30:33;;;;;;;0.00;0.00;;;;;;;16.83;100.00;98787.16;5016531;28;20226;-85
2023/08/01 01:32:59;;;;;;;0.00;0.00;;;;;;;16.90;100.00;98782.41;5027527;28;20681;-86
2023/08/01 01:35:24;;;;;;;0.00;0.00;;;;;;;16.93;100.00;98786.38;5032859;28;20195;-85
2023/08/01 01:37:50;;;;;;;0.00;0.00;;;;;;;16.99;100.00;98781.25;5021788;28;20184;-86
2023/08/01 01:40:15;;;;;;;0.20;0.20;;;;;;;16.87;100.00;98776.91;5030849;28;20255;-85
2023/08/01 01:42:41;;;;;;;0.30;0.10;;;;;;;16.78;100.00;98782.03;5009031;28;20183;-84
2023/08/01 01:45:06;;;;;;;1.80;0.20;;;;;;;16.67;100.00;98782.03;5016530;28;20558;-85
2023/08/01 01:47:32;;;;;;;0.07;0.07;;;;;;;16.60;100.00;98785.53;5025867;28;20260;-84
2023/08/01 01:49:57;;;;;;;0.00;0.00;;;;;;;16.54;100.00;98778.84;5034102;28;20263;-84
2023/08/01 01:52:22;;;;;;;0.00;0.00;;;;;;;16.56;100.00;98781.19;5014150;28;20215;-83
2023/08/01 01:54:47;;;;;;;0.00;0.00;;;;;;;16.53;100.00;98773.72;5016196;28;20715;-85
2023/08/01 01:57:13;;;;;;;0.00;0.00;;;;;;;16.53;100.00;98765.44;5025691;28;20187;-84
2023/08/01 01:59:38;;;;;;;0.00;0.00;;;;;;;16.56;100.00;98765.44;5033861;28;20179;-85
2023/08/01 02:02:04;;;;;;;6.33;0.23;;;;;;;16.55;100.00;98761.13;5015742;28;20192;-84
2023/08/01 02:04:29;;;;;;;0.00;0.00;;;;;;;16.51;100.00;98760.31;5033470;28;20239;-84
2023/08/01 02:06:55;;;;;;;0.00;0.00;;;;;;;16.53;100.00;98748.91;5033668;28;20188;-86
2023/08/01 02:09:20;;;;;;;0.00;0.00;;;;;;;16.73;100.00;98743.81;5033473;28;20262;-86
2023/08/01 02:11:45;;;;;;;0.00;0.00;;;;;;;16.77;100.00;98733.56;5033589;28;20180;-85
2023/08/01 02:14:11;;;;;;;0.00;0.00;;;;;;;16.68;100.00;98735.94;5033464;28;20203;-85
2023/08/01 02:16:36;;;;;;;0.00;0.00;;;;;;;16.42;100.00;98726.03;5015811;28;20183;-85
2023/08/01 02:19:01;;;;;;;0.00;0.00;;;;;;;16.47;100.00;98720.91;5015638;28;20188;-85
2023/08/01 02:21:26;;;;;;;0.00;0.00;;;;;;;16.67;100.00;98732.41;5032940;28;20761;-84
2023/08/01 02:23:52;;;;;;;0.00;0.00;;;;;;;16.53;100.00;98713.06;5027647;28;20204;-86
2023/08/01 02:26:17;;;;;;;0.00;0.00;;;;;;;16.60;100.00;98707.53;5030748;28;20190;-85
2023/08/01 02:28:42;;;;;;;0.00;0.00;;;;;;;16.61;100.00;98709.09;5033198;28;20180;-86
2023/08/01 02:31:08;;;;;;;0.00;0.00;;;;;;;16.67;100.00;98704.81;5015261;28;20298;-85
2023/08/01 02:33:33;;;;;;;0.00;0.00;;;;;;;16.70;100.00;98714.28;5007050;28;20211;-86
2023/08/01 02:35:58;;;;;;;0.00;0.00;;;;;;;16.69;100.00;98715.47;5015363;28;20180;-86
2023/08/01 02:38:23;;;;;;;0.00;0.00;;;;;;;16.76;100.00;98705.19;5015282;28;20562;-86
2023/08/01 02:40:49;;;;;;;0.00;0.00;;;;;;;16.83;100.00;98696.94;5030018;28;20257;-86
2023/08/01 02:43:14;;;;;;;0.00;0.00;;;;;;;16.90;100.00;98699.66;5024044;28;20574;-86
2023/08/01 02:45:41;;;;;;;0.00;0.00;;;;;;;16.88;100.00;98679.97;5007720;28;20270;-85
2023/08/01 02:48:07;;;;;;;0.00;0.00;;;;;;;16.83;100.00;98688.66;5015205;28;20270;-85
2023/08/01 02:50:32;;;;;;;0.00;0.00;;;;;;;16.83;100.00;98685.88;5014893;28;20290;-86
2023/08/01 02:52:57;;;;;;;0.00;0.00;;;;;;;16.84;100.00;98675.66;5032630;28;20658;-86
2023/08/01 02:55:22;;;;;;;0.00;0.00;;;;;;;16.87;100.00;98683.91;5005605;28;20188;-86
2023/08/01 02:57:48;;;;;;;0.00;0.00;;;;;;;16.91;100.00;98689.41;5021327;28;20589;-86
2023/08/01 03:00:13;;;;;;;0.00;0.00;;;;;;;16.90;100.00;98688.63;5021495;28;20179;-86
2023/08/01 03:02:39;;;;;;;0.00;0.00;;;;;;;16.84;100.00;98684.72;5032715;28;20202;-86
2023/08/01 03:05:07;;;;;;;0.00;0.00;;;;;;;16.82;100.00;98675.25;5032750;28;20200;-86
2023/08/01 03:07:32;;;;;;;0.00;0.00;;;;;;;16.73;100.00;98674.88;5021672;28;20207;-86
2023/08/01 03:09:58;;;;;;;0.00;0.00;;;;;;;16.74;100.00;98688.25;5027546;28;20235;-84
2023/08/01 03:12:23;;;;;;;0.00;0.00;;;;;;;16.69;100.00;98682.38;5032389;28;20206;-85
2023/08/01 03:14:48;;;;;;;0.00;0.00;;;;;;;16.70;100.00;98678.41;5032028;28;20223;-85
2023/08/01 03:17:14;;;;;;;0.00;0.00;;;;;;;16.72;100.00;98676.06;5014396;28;20673;-86
2023/08/01 03:19:39;;;;;;;0.00;0.00;;;;;;;16.58;100.00;98666.56;5025016;28;20649;-86
2023/08/01 03:22:04;;;;;;;0.00;0.00;;;;;;;16.56;100.00;98668.16;5014637;28;20191;-85
2023/08/01 03:24:30;;;;;;;0.00;0.00;;;;;;;16.58;100.00;98660.28;5032406;28;20929;-85
2023/08/01 03:26:55;;;;;;;0.00;0.00;;;;;;;16.49;100.00;98651.59;5032352;28;20241;-86
2023/08/01 03:29:20;;;;;;;0.00;0.00;;;;;;;16.34;100.00;98645.31;5032377;28;20191;-84
2023/08/01 03:31:46;;;;;;;0.00;0.00;;;;;;;16.36;100.00;98659.50;5006516;28;20222;-85
2023/08/01 03:34:12;;;;;;;0.00;0.00;;;;;;;16.32;100.00;98658.69;5032143;28;20203;-86
2023/08/01 03:36:38;;;;;;;0.00;0.00;;;;;;;16.40;100.00;98654.00;4998754;28;20560;-86
2023/08/01 03:39:03;;;;;;;0.00;0.00;;;;;;;16.42;100.00;98660.69;5032288;28;20179;-86
2023/08/01 03:41:29;;;;;;;0.00;0.00;;;;;;;16.44;100.00;98679.56;5031964;28;20176;-85
2023/08/01 03:43:54;;;;;;;0.00;0.00;;;;;;;16.41;100.00;98666.59;5032144;28;20693;-85
2023/08/01 03:46:20;;;;;;;0.00;0.00;;;;;;;16.39;100.00;98650.44;5006550;28;20191;-85
2023/08/01 03:48:45;;;;;;;0.00;0.00;;;;;;;16.41;100.00;98645.31;5001920;28;20192;-85
2023/08/01 03:51:10;;;;;;;0.00;0.00;;;;;;;16.42;100.00;98646.09;5028604;28;20673;-85
2023/08/01 03:53:36;;;;;;;0.00;0.00;;;;;;;16.29;100.00;98637.44;5010811;28;20204;-85
2023/08/01 03:56:02;;;;;;;0.00;0.00;;;;;;;16.17;100.00;98640.59;5011244;28;20192;-86
2023/08/01 03:58:27;;;;;;;0.00;0.00;;;;;;;16.14;100.00;98642.16;5028548;28;20270;-84
2023/08/01 04:00:53;;;;;;;0.00;0.00;;;;;;;16.18;100.00;98642.16;5008502;28;20238;-85
2023/08/01 04:03:18;;;;;;;0.23;0.23;;;;;;;16.23;100.00;98639.81;5031625;28;20214;-85
2023/08/01 04:05:44;;;;;;;0.00;0.00;;;;;;;16.24;100.00;98643.34;5032015;28;20230;-85
2023/08/01 04:08:09;;;;;;;0.00;0.00;;;;;;;16.25;100.00;98639.41;5032178;28;20183;-86
2023/08/01 04:10:34;;;;;;;0.00;0.00;;;;;;;16.19;100.00;98647.28;5031925;28;20238;-86
2023/08/01 04:12:59;;;;;;;0.10;0.00;;;;;;;16.18;100.00;98640.19;5014100;28;20654;-85
2023/08/01 04:15:25;;;;;;;0.00;0.00;;;;;;;16.21;100.00;98647.69;5031575;28;20219;-85
2023/08/01 04:17:50;;;;;;;0.00;0.00;;;;;;;16.18;100.00;98648.47;5014209;28;20211;-84
2023/08/01 04:20:15;;;;;;;0.00;0.00;;;;;;;16.19;100.00;98649.25;5014170;28;20209;-86
2023/08/01 04:22:41;;;;;;;0.00;0.00;;;;;;;16.17;100.00;98635.06;5013805;28;20187;-85
2023/08/01 04:25:07;;;;;;;0.00;0.00;;;;;;;16.09;100.00;98630.75;5031705;28;20207;-84
2023/08/01 04:27:32;;;;;;;0.23;0.23;;;;;;;16.04;100.00;98640.19;5025674;28;20202;-84
2023/08/01 04:29:57;;;;;;;0.00;0.00;;;;;;;16.20;100.00;98631.53;5029226;28;20291;-86
2023/08/01 04:32:23;;;;;;;0.00;0.00;;;;;;;16.22;100.00;98623.69;5033405;28;20191;-85
2023/08/01 04:34:48;;;;;;;0.10;0.00;;;;;;;16.11;100.00;98625.63;5017973;28;20425;-85
2023/08/01 04:37:13;;;;;;;0.00;0.00;;;;;;;15.97;100.00;98621.69;5035622;28;20187;-85
2023/08/01 04:39:39;;;;;;;0.13;0.13;;;;;;;16.00;100.00;98625.63;5017748;28;20193;-83
2023/08/01 04:42:04;;;;;;;0.00;0.00;;;;;;;15.97;100.00;98632.72;5019840;28;20184;-84
2023/08/01 04:44:30;;;;;;;0.00;0.00;;;;;;;15.93;100.00;98620.91;5016729;28;20210;-84
2023/08/01 04:46:55;;;;;;;0.00;0.00;;;;;;;15.95;100.00;98624.06;5027031;28;20188;-85
2023/08/01 04:49:21;;;;;;;0.00;0.00;;;;;;;16.03;100.00;98625.63;5027071;28;20185;-85
2023/08/01 04:51:48;;;;;;;0.00;0.00;;;;;;;15.95;100.00;98617.75;5017051;28;20297;-84
2023/08/01 04:54:14;;;;;;;0.00;0.00;;;;;;;15.89;100.00;98625.59;5017334;28;20624;-86
2023/08/01 04:56:39;;;;;;;0.23;0.23;;;;;;;15.92;100.00;98632.31;5035125;28;20272;-85
2023/08/01 04:59:04;;;;;;;0.00;0.00;;;;;;;15.97;100.00;98637.44;5010175;28;20231;-86
2023/08/01 05:01:29;;;;;;;0.00;0.00;;;;;;;16.13;100.00;98626.03;5007974;28;20180;-84
2023/08/01 05:03:55;;;;;;;0.00;0.00;;;;;;;16.08;100.00;98629.19;5035046;28;20294;-85
2023/08/01 05:06:20;;;;;;;0.00;0.00;;;;;;;16.09;100.00;98637.06;5034774;28;20609;-85
2023/08/01 05:08:45;;;;;;;0.10;0.10;;;;;;;16.12;100.00;98635.47;5017131;28;20270;-86
2023/08/01 05:11:10;;;;;;;2.13;0.40;;;;;;;16.04;100.00;98643.72;5034676;28;20215;-86
2023/08/01 05:13:36;;;;;;;0.00;0.00;;;;;;;15.97;100.00;98643.72;5017930;28;20200;-84
2023/08/01 05:16:02;;;;;;;0.10;0.10;;;;;;;15.94;100.00;98635.47;5034561;28;20217;-84
2023/08/01 05:18:28;;;;;;;0.00;0.00;;;;;;;15.97;100.00;98632.72;5017041;28;20192;-85
2023/08/01 05:20:53;;;;;;;0.00;0.00;;;;;;;15.94;100.00;98641.75;5011103;28;20195;-84
2023/08/01 05:23:18;;;;;;;0.10;0.10;;;;;;;16.02;100.00;98642.53;5031851;28;20249;-83
2023/08/01 05:25:43;;;;;;;0.00;0.00;;;;;;;15.90;100.00;98635.44;5016822;28;20241;-85
2023/08/01 05:28:09;;;;;;;0.20;0.20;;;;;;;15.96;100.00;98647.66;5034297;28;20642;-84
2023/08/01 05:30:34;;;;;;;0.20;0.20;;;;;;;15.91;100.00;98638.97;5017865;28;20246;-85
2023/08/01 05:33:00;;;;;;;0.00;0.00;;;;;;;15.96;100.00;98647.66;5011107;28;20188;-84
2023/08/01 05:35:25;;;;;;;0.07;0.07;;;;;;;16.01;100.00;98644.50;5015356;28;20331;-84
2023/08/01 05:37:50;;;;;;;0.00;0.00;;;;;;;15.93;100.00;98642.16;5008566;28;20194;-85
2023/08/01 05:40:16;;;;;;;0.00;0.00;;;;;;;15.97;100.00;98654.75;5034624;28;20234;-84
2023/08/01 05:42:41;;;;;;;0.00;0.00;;;;;;;15.91;100.00;98652.75;5016939;28;20184;-84
2023/08/01 05:45:07;;;;;;;0.00;0.00;;;;;;;15.97;100.00;98660.25;5016783;28;20211;-85
2023/08/01 05:47:32;;;;;;;0.00;0.00;;;;;;;15.79;100.00;98645.66;5026304;28;20188;-85
2023/08/01 05:49:58;;;;;;;0.00;0.00;;;;;;;15.92;100.00;98654.34;5008544;28;20732;-85
2023/08/01 05:52:24;;;;;;;0.03;0.03;;;;;;;15.85;100.00;98654.31;5016193;28;20188;-85
2023/08/01 05:54:49;;;;;;;0.00;0.00;;;;;;;15.66;100.00;98647.22;5033916;28;20208;-85
2023/08/01 05:57:14;;;;;;;0.20;0.20;;;;;;;15.71;100.00;98658.63;5026593;28;20692;-84
2023/08/01 05:59:40;;;;;;;0.13;0.13;;;;;;;15.63;100.00;98653.50;5016637;28;20207;-85
2023/08/01 06:02:05;;;;;;;0.20;0.20;;;;;;;15.67;100.00;98651.53;5016466;28;20634;-86
2023/08/01 06:04:31;;;;;;;0.20;0.20;;;;;;;15.63;100.00;98646.03;5023590;28;20235;-86
2023/08/01 06:06:57;;;;;;;0.10;0.10;;;;;;;15.66;100.00;98639.72;5023370;28;20647;-86
2023/08/01 06:09:22;;;;;;;7.50;0.70;;;;;;;15.61;100.00;98642.06;5016243;28;20192;-86
2023/08/01 06:11:47;;;;;;;0.10;0.10;;;;;;;15.64;100.00;98650.34;5036536;28;20238;-86
2023/08/01 06:14:12;;;;;;;2.53;0.83;;;;;;;15.51;100.00;98635.34;5017753;28;20223;-87
2023/08/01 06:16:38;;;;;;;0.70;0.70;;;;;;;15.54;100.00;98653.81;5032987;28;20192;-85
2023/08/01 06:19:04;;;;;;;9.63;0.47;;;;;;;15.51;100.00;98640.84;5023385;28;20188;-85
2023/08/01 06:21:29;;;;;;;0.70;0.70;;;;;;;15.60;100.00;98648.75;5014906;28;20710;-85
2023/08/01 06:23:54;;;;;;;0.10;0.10;;;;;;;15.59;100.00;98647.13;5033695;28;20204;-85
2023/08/01 06:26:19;;;;;;;0.77;0.77;;;;;;;15.55;100.00;98647.13;5025391;28;20203;-85
2023/08/01 06:28:45;;;;;;;0.10;0.10;;;;;;;15.58;100.00;98657.38;5025407;28;20187;-84
2023/08/01 06:31:10;;;;;;;0.40;0.40;;;;;;;15.63;100.00;98651.53;5002429;28;20205;-85
2023/08/01 06:33:36;;;;;;;0.50;0.30;;;;;;;15.66;100.00;98652.72;5002466;28;20286;-85
2023/08/01 06:36:01;;;;;;;4.80;0.67;;;;;;;15.67;100.00;98654.28;5009691;28;20536;-85
2023/08/01 06:38:26;;;;;;;0.00;0.00;;;;;;;15.77;100.00;98659.84;5030135;28;20654;-85
2023/08/01 06:40:51;;;;;;;0.10;0.10;;;;;;;15.83;100.00;98673.22;5007385;28;20195;-85
2023/08/01 06:43:17;;;;;;;2.43;0.40;;;;;;;15.89;100.00;98672.41;5032747;28;20275;-85
2023/08/01 06:45:42;;;;;;;0.30;0.30;;;;;;;15.90;100.00;98671.25;5007431;28;20188;-85
2023/08/01 06:48:08;;;;;;;0.33;0.23;;;;;;;15.95;100.00;98670.09;5033110;28;20192;-85
2023/08/01 06:50:33;;;;;;;0.00;0.00;;;;;;;16.00;100.00;98676.00;5022683;28;20200;-85
2023/08/01 06:53:00;;;;;;;0.00;0.00;;;;;;;16.01;100.00;98679.53;5024626;28;20668;-85
2023/08/01 06:55:25;;;;;;;0.00;0.00;;;;;;;16.05;100.00;98680.31;5006133;28;20271;-86
2023/08/01 06:57:50;;;;;;;0.40;0.40;;;;;;;16.15;100.00;98687.03;5018406;28;20713;-85
2023/08/01 07:00:16;;;;;;;0.20;0.20;;;;;;;16.04;100.00;98679.53;5002683;28;20243;-83
2023/08/01 07:02:41;;;;;;;0.37;0.37;;;;;;;15.91;100.00;98678.34;5003642;28;20250;-85
2023/08/01 07:05:07;;;;;;;0.07;0.07;;;;;;;15.87;100.00;98679.50;5010474;28;20262;-85
2023/08/01 07:07:32;;;;;;;1.03;0.60;;;;;;;15.86;100.00;98689.72;5012146;28;20679;-83
2023/08/01 07:09:57;;;;;;;0.83;0.40;;;;;;;15.75;100.00;98678.69;5026922;28;20210;-84
2023/08/01 07:12:22;;;;;;;0.83;0.83;;;;;;;15.71;100.00;98697.16;5004731;28;20724;-84
2023/08/01 07:14:48;;;;;;;0.43;0.40;;;;;;;15.74;100.00;98692.84;5019113;28;20216;-85
2023/08/01 07:17:13;;;;;;;0.43;0.43;;;;;;;15.75;100.00;98686.94;4997821;28;20267;-84
2023/08/01 07:19:38;;;;;;;0.37;0.37;;;;;;;15.77;100.00;98703.09;5013078;28;20270;-84
2023/08/01 07:22:04;;;;;;;0.57;0.57;;;;;;;15.76;100.00;98691.28;5025891;28;20192;-85
2023/08/01 07:24:29;;;;;;;0.53;0.53;;;;;;;15.84;100.00;98697.59;5006678;28;20204;-87
2023/08/01 07:26:54;;;;;;;0.47;0.47;;;;;;;15.93;100.00;98698.03;5032386;28;20183;-85
2023/08/01 07:29:20;;;;;;;0.30;0.30;;;;;;;15.95;100.00;98694.88;5025764;28;20218;-86
2023/08/01 07:31:45;;;;;;;1.07;0.30;;;;;;;15.97;100.00;98698.03;5014166;28;20257;-85
2023/08/01 07:34:11;;;;;;;0.53;0.53;;;;;;;15.99;100.00;98701.19;5014373;28;20215;-83
2023/08/01 07:36:36;;;;;;;0.60;0.40;;;;;;;15.97;100.00;98709.03;5010786;28;20188;-85
2023/08/01 07:39:03;;;;;;;2.20;0.80;;;;;;;15.94;100.00;98710.63;5020232;28;20556;-84
2023/08/01 07:41:28;;;;;;;1.33;0.90;;;;;;;15.99;100.00;98712.97;5022440;28;20311;-85
2023/08/01 07:43:54;;;;;;;1.70;1.30;;;;;;;16.13;100.00;98714.19;5014374;28;20248;-85
2023/08/01 07:46:19;;;;;;;1.30;0.83;;;;;;;16.08;100.00;98709.88;5030867;28;20184;-84
2023/08/01 07:48:44;;;;;;;7.73;1.63;;;;;;;16.09;100.00;98716.94;5020506;28;20191;-85
2023/08/01 07:51:11;;;;;;;2.20;2.00;;;;;;;16.05;100.00;98713.38;5002528;28;20254;-83
2023/08/01 07:53:36;;;;;;;0.93;0.93;;;;;;;16.10;100.00;98729.53;5005743;28;20273;-85
2023/08/01 07:56:02;;;;;;;1.23;1.13;;;;;;;16.13;100.00;98722.47;5023771;28;20265;-85
2023/08/01 07:58:28;;;;;;;1.60;1.37;;;;;;;16.03;100.00;98716.53;5011700;28;20215;-84
2023/08/01 08:00:53;;;;;;;12.00;1.50;;;;;;;15.99;100.00;98718.50;5025596;28;20178;-84
2023/08/01 08:03:19;;;;;;;1.03;1.03;;;;;;;15.99;100.00;98721.25;5005592;28;20211;-84
2023/08/01 08:05:44;;;;;;;1.87;1.20;;;;;;;15.99;100.00;98717.72;5031763;28;20188;-85
2023/08/01 08:08:10;;;;;;;1.77;1.67;;;;;;;15.99;100.00;98714.94;5027082;28;20632;-85
2023/08/01 08:10:35;;;;;;;1.37;1.27;;;;;;;15.98;100.00;98719.66;5001822;28;20247;-83
2023/08/01 08:13:00;;;;;;;3.20;2.03;;;;;;;16.11;100.00;98722.06;5012248;28;20651;-85
2023/08/01 08:15:26;;;;;;;0.47;0.47;;;;;;;16.26;100.00;98724.44;4995380;28;20200;-84
2023/08/01 08:17:51;;;;;;;8.73;1.70;;;;;;;16.27;100.00;98726.03;5007753;28;20186;-84
2023/08/01 08:20:17;;;;;;;1.90;1.70;;;;;;;16.41;100.00;98729.97;5010470;28;20251;-83
2023/08/01 08:22:42;;;;;;;0.13;0.13;;;;;;;16.67;100.00;98729.63;5011655;28;20682;-85
2023/08/01 08:25:07;;;;;;;1.47;1.20;;;;;;;16.79;100.00;98722.94;5027615;28;20283;-85
2023/08/01 08:27:32;;;;;;;0.73;0.73;;;;;;;16.88;100.00;98726.06;5028594;28;20665;-84
2023/08/01 08:29:58;;;;;;;4.77;1.20;;;;;;;16.91;100.00;98722.50;5020092;28;20789;-84
2023/08/01 08:32:23;;;;;;;1.23;1.13;;;;;;;17.06;100.00;98721.31;5010139;28;20529;-84
2023/08/01 08:34:48;;;;;;;4.47;2.50;;;;;;;16.98;100.00;98710.69;5007446;28;20392;-84
2023/08/01 08:37:14;;;;;;;1.40;1.30;;;;;;;17.01;100.00;98705.16;5005463;28;20655;-85
2023/08/01 08:39:39;;;;;;;3.07;2.20;;;;;;;16.90;100.00;98694.13;5006107;28;20183;-84
2023/08/01 08:42:05;;;;;;;5.80;2.10;;;;;;;17.09;100.00;98700.44;5020291;28;20261;-83
2023/08/01 08:44:34;;;;;;;4.57;2.60;;;;;;;17.34;100.00;98716.91;5012553;28;20199;-84
2023/08/01 08:47:05;;;;;;;7.93;1.87;;;;;;;17.43;100.00;98706.25;5013919;28;20712;-84
2023/08/01 08:49:31;;;;;;;3.97;2.60;;;;;;;17.66;100.00;98714.84;5013535;28;20565;-85
2023/08/01 08:51:58;;;;;;;2.50;1.93;;;;;;;17.75;100.00;98720.72;5015100;28;20335;-84
2023/08/01 08:54:24;;;;;;;2.67;1.20;;;;;;;17.80;100.00;98708.50;5013781;28;20197;-85
2023/08/01 08:56:49;;;;;;;2.10;1.37;;;;;;;17.81;100.00;98708.09;5020863;28;20267;-85
2023/08/01 08:59:15;;;;;;;1.33;1.20;;;;;;;17.89;100.00;98708.81;5013471;28;20647;-84
2023/08/01 09:01:40;;;;;;;3.27;1.60;;;;;;;17.96;100.00;98699.72;5023699;28;20168;-83
2023/08/01 09:04:06;;;;;;;2.13;2.03;;;;;;;18.10;100.00;98694.91;5031186;28;20199;-84
2023/08/01 09:06:37;;;;;;;1.63;1.53;;;;;;;18.02;100.00;98689.81;5013753;28;20276;-85
2023/08/01 09:09:08;;;;;;;1.03;0.93;;;;;;;18.03;100.00;98692.16;5026855;28;20172;-85
2023/08/01 09:11:48;;;;;;;1.47;1.37;;;;;;;18.03;100.00;98675.59;5016078;28;20246;-85
2023/08/01 09:14:13;;;;;;;6.50;1.10;;;;;;;17.97;100.00;98690.25;5017583;28;20216;-83
2023/08/01 09:16:43;;;;;;;2.30;1.53;;;;;;;17.91;100.00;98695.41;5034742;28;20187;-85
2023/08/01 09:19:09;;;;;;;0.57;0.57;;;;;;;17.76;100.00;98693.91;5027013;28;20259;-85
2023/08/01 09:21:38;;;;;;;0.70;0.70;;;;;;;17.87;100.00;98713.19;5016573;28;20200;-85
2023/08/01 09:24:11;;;;;;;4.80;1.47;;;;;;;18.01;100.00;98704.81;5016843;28;20620;-84
2023/08/01 09:26:37;;;;;;;3.20;1.60;;;;;;;18.03;100.00;98688.63;5017859;28;20618;-85
2023/08/01 09:29:02;;;;;;;1.30;1.03;;;;;;;18.19;100.00;98688.13;5029820;28;20190;-85
2023/08/01 09:31:36;;;;;;;1.03;0.93;;;;;;;18.29;100.00;98698.31;5026006;28;20706;-85
2023/08/01 09:34:06;;;;;;;16.27;0.90;;;;;;;18.37;99.65;98681.28;5034424;28;20204;-85
2023/08/01 09:36:33;;;;;;;1.13;1.10;;;;;;;18.62;100.00;98685.81;5026348;28;20246;-83
2023/08/01 09:39:03;;;;;;;0.80;0.80;;;;;;;18.70;98.75;98679.06;5034395;28;20262;-86
2023/08/01 09:41:30;;;;;;;2.20;1.33;;;;;;;18.76;98.00;98682.16;5016251;28;20195;-84
2023/08/01 09:43:56;;;;;;;1.93;1.13;;;;;;;18.86;96.98;98690.38;5034201;28;20290;-84
2023/08/01 09:46:22;;;;;;;1.73;1.63;;;;;;;18.73;94.68;98673.50;5034159;28;20287;-84
2023/08/01 09:48:47;;;;;;;0.90;0.90;;;;;;;18.82;94.71;98680.53;5029236;28;20195;-85
2023/08/01 09:51:18;;;;;;;1.07;0.97;;;;;;;18.94;93.35;98683.56;5012859;28;20199;-84
2023/08/01 09:53:56;;;;;;;9.00;0.57;;;;;;;19.12;91.99;98688.16;5015924;28;20199;-84
2023/08/01 09:56:24;;;;;;;2.47;1.23;;;;;;;19.23;90.68;98686.03;5014908;28;20183;-84
2023/08/01 09:58:51;;;;;;;1.00;1.00;;;;;;;19.21;88.84;98683.69;5010020;28;20187;-84
2023/08/01 10:01:19;;;;;;;0.93;0.93;;;;;;;19.31;90.29;98691.09;5008294;28;20180;-85
2023/08/01 10:03:50;;;;;;;0.77;0.77;;;;;;;19.32;88.53;98683.56;5025920;28;20204;-84
2023/08/01 10:06:20;;;;;;;3.07;1.23;;;;;;;19.47;88.12;98693.28;4998563;28;20547;-84
2023/08/01 10:08:47;;;;;;;0.60;0.60;;;;;;;19.74;88.40;98701.69;5017141;28;20576;-85
2023/08/01 10:11:14;;;;;;;1.70;1.07;;;;;;;19.62;85.81;98688.38;5017252;28;20200;-85
2023/08/01 10:13:41;;;;;;;1.10;0.80;;;;;;;19.29;84.17;98692.69;5013073;28;20196;-84
2023/08/01 10:16:07;;;;;;;1.37;1.17;;;;;;;19.12;85.20;98708.31;5029518;28;20192;-84
2023/08/01 10:18:34;;;;;;;1.70;1.43;;;;;;;19.12;86.61;98696.44;5033341;28;20176;-84
2023/08/01 10:21:00;;;;;;;1.93;1.40;;;;;;;19.17;87.02;98702.31;5015674;28;20263;-85
2023/08/01 10:23:26;;;;;;;1.70;1.13;;;;;;;19.20;86.47;98709.00;5032900;28;20666;-84
2023/08/01 10:25:53;;;;;;;0.70;0.63;;;;;;;19.51;87.45;98702.31;5033513;28;20231;-85
2023/08/01 10:28:18;;;;;;;1.80;0.63;;;;;;;19.64;86.87;98705.38;5025017;28;20188;-85
2023/08/01 10:30:43;;;;;;;3.10;0.90;;;;;;;19.48;84.42;98699.59;5024961;28;20282;-84
2023/08/01 10:33:12;;;;;;;2.23;1.40;;;;;;;19.48;83.57;98694.84;5032752;28;20566;-85
2023/08/01 10:35:39;;;;;;;0.87;0.87;;;;;;;19.46;83.48;98705.56;5033137;28;20556;-84
2023/08/01 10:38:10;;;;;;;3.73;1.50;;;;;;;19.40;83.46;98698.13;5015385;28;20184;-85
2023/08/01 10:40:38;;;;;;;1.03;0.97;;;;;;;19.61;83.50;98709.75;5021455;28;20177;-84
2023/08/01 10:43:04;;;;;;;0.77;0.70;;;;;;;19.46;81.39;98686.16;5003430;28;20234;-84
2023/08/01 10:45:29;;;;;;;0.40;0.40;;;;;;;19.48;82.74;98696.81;5004016;28;20626;-85
2023/08/01 10:48:09;;;;;;;0.87;0.83;;;;;;;19.67;82.79;98704.53;5004598;28;20186;-85
2023/08/01 10:50:34;;;;;;;1.13;1.03;;;;;;;19.61;81.29;98706.97;5032865;28;20203;-85
2023/08/01 10:53:08;;;;;;;1.87;1.67;;;;;;;19.86;80.92;98697.56;5015795;28;20275;-85
2023/08/01 10:55:45;;;;;;;1.20;1.03;;;;;;;19.85;79.88;98685.69;5033429;28;20551;-84
2023/08/01 10:58:11;;;;;;;1.30;0.60;;;;;;;19.95;79.45;98683.97;5033250;28;20187;-84
2023/08/01 11:00:37;;;;;;;5.73;1.43;;;;;;;20.41;79.24;98688.06;5003876;28;20280;-84
2023/08/01 11:03:02;;;;;;;0.73;0.73;;;;;;;20.43;75.77;98675.38;5028221;28;20172;-85
2023/08/01 11:05:29;;;;;;;0.40;0.40;;;;;;;20.39;74.74;98673.81;5033183;28;20556;-84
2023/08/01 11:07:59;;;;;;;1.37;0.70;;;;;;;20.32;75.65;98679.47;5033021;28;20588;-84
2023/08/01 11:10:29;;;;;;;0.00;0.00;;;;;;;20.41;76.64;98688.06;5014573;28;20771;-85
2023/08/01 11:12:55;;;;;;;0.33;0.33;;;;;;;20.61;76.69;98693.72;5032677;28;20183;-84
2023/08/01 11:15:21;;;;;;;0.80;0.60;;;;;;;20.36;74.71;98689.31;5015079;28;20191;-84
2023/08/01 11:17:53;;;;;;;0.43;0.43;;;;;;;20.05;74.03;98677.50;5032797;28;20601;-84
2023/08/01 11:20:26;;;;;;;0.20;0.20;;;;;;;20.07;75.78;98688.94;5032384;28;20646;-82